Time;durP1;ratioP1;P1;durP2;ratioP2;P2;SDS_P1;SDS_P2;PMS_P1;PMS_P2;Temp;Humidity;BMP_temperature;BMP_pressure;BME280_temperature;BME280_humidity;BME280_pressure;Samples;Min_cycle;Max_cycle;Signal;HPM_P1;HPM_P2
2022/05/25 00:00:09;;;;;;;0.50;0.50;;;14.20;1.00;;;;;;5039925;28;20175;-78
2022/05/25 00:02:35;;;;;;;0.40;0.40;;;14.20;1.00;;;;;;5037102;28;20225;-79
2022/05/25 00:05:01;;;;;;;0.40;0.40;;;14.10;1.00;;;;;;5035646;28;20240;-78
2022/05/25 00:07:27;;;;;;;0.40;0.40;;;14.10;1.00;;;;;;5036367;28;20237;-80
2022/05/25 00:09:53;;;;;;;0.30;0.30;;;14.00;1.00;;;;;;5044002;28;20509;-80
2022/05/25 00:12:20;;;;;;;0.47;0.47;;;13.90;1.00;;;;;;5041953;28;20198;-79
2022/05/25 00:14:45;;;;;;;0.40;0.40;;;13.90;1.00;;;;;;5042112;28;20227;-78
2022/05/25 00:17:11;;;;;;;0.50;0.50;;;13.80;1.00;;;;;;5039625;28;20187;-78
2022/05/25 00:22:20;;;;;;;0.50;0.50;;;13.80;1.00;;;;;;5039180;28;20199;-79
2022/05/25 00:24:46;;;;;;;0.40;0.40;;;13.80;1.00;;;;;;5037817;28;20176;-79
2022/05/25 00:27:12;;;;;;;0.30;0.30;;;13.70;1.00;;;;;;5054891;28;20180;-78
2022/05/25 00:29:37;;;;;;;0.50;0.50;;;13.70;1.00;;;;;;5055221;28;20164;-78
2022/05/25 00:32:05;;;;;;;0.47;0.47;;;13.70;1.00;;;;;;5055175;28;20187;-77
2022/05/25 00:34:30;;;;;;;0.30;0.30;;;13.70;1.00;;;;;;5055412;28;20216;-77
2022/05/25 00:36:56;;;;;;;0.40;0.40;;;13.70;1.00;;;;;;5055325;28;20168;-76
2022/05/25 00:39:23;;;;;;;0.47;0.47;;;13.80;1.00;;;;;;5054854;28;20191;-77
2022/05/25 00:41:50;;;;;;;0.40;0.40;;;13.80;1.00;;;;;;5052645;28;20204;-79
2022/05/25 00:44:16;;;;;;;0.40;0.40;;;13.80;1.00;;;;;;5043679;28;20499;-78
2022/05/25 00:46:41;;;;;;;0.50;0.50;;;13.80;1.00;;;;;;5050956;28;20178;-77
2022/05/25 00:49:28;;;;;;;0.40;0.40;;;13.80;1.00;;;;;;5055179;28;20192;-78
2022/05/25 00:51:59;;;;;;;0.40;0.40;;;13.90;1.00;;;;;;5058330;28;20288;-77
2022/05/25 00:54:35;;;;;;;0.40;0.40;;;13.90;1.00;;;;;;5056814;28;20214;-77
2022/05/25 00:57:15;;;;;;;0.50;0.50;;;14.00;1.00;;;;;;5047718;28;20210;-77
2022/05/25 01:00:09;;;;;;;0.40;0.40;;;13.90;1.00;;;;;;5050730;28;20183;-78
2022/05/25 01:02:40;;;;;;;0.40;0.40;;;14.00;1.00;;;;;;5045853;28;20196;-78
2022/05/25 01:05:06;;;;;;;0.40;0.40;;;14.00;1.00;;;;;;5046911;28;20172;-77
2022/05/25 01:07:40;;;;;;;0.40;0.40;;;14.00;1.00;;;;;;5042603;28;20283;-78
2022/05/25 01:10:22;;;;;;;0.40;0.40;;;13.90;1.00;;;;;;5036460;28;20171;-78
2022/05/25 01:13:10;;;;;;;0.43;0.43;;;13.80;1.00;;;;;;5036503;28;20517;-78
2022/05/25 01:16:04;;;;;;;0.40;0.40;;;13.80;1.00;;;;;;5036026;28;20652;-77
2022/05/25 01:19:12;;;;;;;0.40;0.40;;;13.80;1.00;;;;;;5037155;28;20199;-78
2022/05/25 01:21:58;;;;;;;0.50;0.50;;;13.70;1.00;;;;;;5035490;28;20245;-77
2022/05/25 01:24:34;;;;;;;0.30;0.30;;;13.70;1.00;;;;;;5043941;28;20183;-77
2022/05/25 01:27:11;;;;;;;0.43;0.43;;;13.70;1.00;;;;;;5045596;28;20229;-78
2022/05/25 01:29:55;;;;;;;0.47;0.47;;;13.70;1.00;;;;;;5045377;28;20175;-78
2022/05/25 01:32:35;;;;;;;0.33;0.33;;;13.80;1.00;;;;;;5042318;28;20255;-78
2022/05/25 01:35:08;;;;;;;0.40;0.40;;;13.70;1.00;;;;;;5042861;28;20211;-77
2022/05/25 01:38:21;;;;;;;0.40;0.40;;;13.80;1.00;;;;;;5043907;28;20180;-77
2022/05/25 01:40:54;;;;;;;0.40;0.40;;;13.70;1.00;;;;;;5015748;28;20266;-78
2022/05/25 01:43:32;;;;;;;0.47;0.47;;;13.70;1.00;;;;;;5034987;28;20657;-78
2022/05/25 01:46:03;;;;;;;0.50;0.50;;;13.60;1.00;;;;;;5035421;28;20578;-78
2022/05/25 01:48:33;;;;;;;0.30;0.30;;;13.60;1.00;;;;;;5045778;28;20176;-78
2022/05/25 01:51:05;;;;;;;0.40;0.40;;;13.60;1.00;;;;;;5048574;28;20211;-77
2022/05/25 01:53:37;;;;;;;0.40;0.40;;;13.70;16.10;;;;;;5048708;28;20211;-77
2022/05/25 01:56:06;;;;;;;0.43;0.43;;;13.70;47.00;;;;;;5039379;28;20180;-77
2022/05/25 01:58:36;;;;;;;0.37;0.37;;;13.70;46.70;;;;;;5035920;28;20256;-77
2022/05/25 02:01:05;;;;;;;0.40;0.40;;;13.70;29.60;;;;;;5035696;28;20199;-77
2022/05/25 02:06:31;;;;;;;0.40;0.40;;;13.60;59.90;;;;;;5034294;28;20179;-78
2022/05/25 02:09:09;;;;;;;0.50;0.50;;;13.60;39.70;;;;;;5033250;28;20598;-78
2022/05/25 02:11:40;;;;;;;0.50;0.50;;;13.60;15.60;;;;;;5034085;28;20206;-78
2022/05/25 02:14:17;;;;;;;0.40;0.40;;;13.60;5.20;;;;;;5034134;28;20696;-78
2022/05/25 02:16:55;;;;;;;0.47;0.47;;;13.50;24.90;;;;;;5033200;28;20609;-77
2022/05/25 02:19:37;;;;;;;0.60;0.60;;;13.50;11.50;;;;;;5032396;28;20175;-78
2022/05/25 02:22:10;;;;;;;0.40;0.40;;;13.50;12.50;;;;;;5032743;28;20195;-78
2022/05/25 02:24:51;;;;;;;0.40;0.40;;;13.50;1.00;;;;;;5032947;28;20251;-78
2022/05/25 02:27:25;;;;;;;0.50;0.50;;;13.50;1.00;;;;;;5032746;28;20249;-78
2022/05/25 02:29:56;;;;;;;0.40;0.40;;;13.50;1.00;;;;;;5032650;28;20175;-78
2022/05/25 02:32:32;;;;;;;0.50;0.50;;;13.50;36.10;;;;;;5032832;28;20219;-78
2022/05/25 02:34:58;;;;;;;0.50;0.50;;;13.50;88.60;;;;;;5032561;28;20207;-77
2022/05/25 02:37:26;;;;;;;0.40;0.40;;;13.50;91.80;;;;;;5032741;28;20176;-77
2022/05/25 02:39:53;;;;;;;0.50;0.50;;;13.50;81.80;;;;;;5032493;28;20270;-78
2022/05/25 02:42:19;;;;;;;0.30;0.30;;;13.40;68.10;;;;;;5032527;28;20237;-77
2022/05/25 02:44:45;;;;;;;0.50;0.50;;;13.40;58.10;;;;;;5032364;28;20195;-77
2022/05/25 02:47:11;;;;;;;0.50;0.50;;;13.40;84.50;;;;;;5032220;28;20214;-77
2022/05/25 02:49:38;;;;;;;0.40;0.40;;;13.40;87.40;;;;;;5031801;28;20199;-78
2022/05/25 02:52:04;;;;;;;0.37;0.37;;;13.40;76.30;;;;;;5031543;28;20250;-78
2022/05/25 02:54:30;;;;;;;0.40;0.40;;;13.30;68.00;;;;;;5032185;28;20322;-77
2022/05/25 02:56:56;;;;;;;0.40;0.40;;;13.40;56.30;;;;;;5031919;28;20540;-78
2022/05/25 02:59:21;;;;;;;0.50;0.50;;;13.40;64.10;;;;;;5031410;28;20176;-78
2022/05/25 03:01:47;;;;;;;0.40;0.40;;;13.40;72.40;;;;;;5031646;28;20192;-77
2022/05/25 03:04:12;;;;;;;0.40;0.40;;;13.30;74.00;;;;;;5031700;28;20171;-78
2022/05/25 03:06:38;;;;;;;0.40;0.40;;;13.30;98.40;;;;;;5032372;28;20178;-77
2022/05/25 03:09:04;;;;;;;0.30;0.30;;;13.20;99.90;;;;;;5031891;28;20182;-78
2022/05/25 03:11:29;;;;;;;0.40;0.40;;;13.20;99.90;;;;;;5031601;28;20555;-78
2022/05/25 03:13:55;;;;;;;0.40;0.40;;;13.20;99.90;;;;;;5031933;28;20211;-78
2022/05/25 03:16:22;;;;;;;0.30;0.30;;;13.20;99.90;;;;;;5031695;28;20571;-77
2022/05/25 03:18:48;;;;;;;0.30;0.30;;;13.20;99.90;;;;;;5031938;28;20184;-78
2022/05/25 03:21:14;;;;;;;0.40;0.40;;;13.20;99.90;;;;;;5031717;28;20270;-78
2022/05/25 03:23:39;;;;;;;0.33;0.33;;;13.20;99.90;;;;;;5031918;28;20689;-78
2022/05/25 03:26:05;;;;;;;0.40;0.40;;;13.20;99.90;;;;;;5031709;28;20274;-78
2022/05/25 03:28:31;;;;;;;0.50;0.50;;;13.10;99.90;;;;;;5031733;28;20172;-78
2022/05/25 03:30:57;;;;;;;0.40;0.40;;;13.10;99.90;;;;;;5031261;28;20218;-79
2022/05/25 03:33:22;;;;;;;0.40;0.40;;;13.10;99.90;;;;;;5052617;22;20578;-78
2022/05/25 03:35:48;;;;;;;0.50;0.50;;;13.10;99.90;;;;;;5015901;28;20560;-77
2022/05/25 03:38:14;;;;;;;0.50;0.50;;;13.10;99.90;;;;;;5016021;28;20183;-78
2022/05/25 03:40:40;;;;;;;0.40;0.40;;;13.10;99.90;;;;;;5014760;28;20173;-78
2022/05/25 03:43:07;;;;;;;0.40;0.40;;;13.10;99.90;;;;;;5015183;28;20184;-78
2022/05/25 03:45:33;;;;;;;0.30;0.30;;;13.00;99.90;;;;;;5015642;28;20199;-77
2022/05/25 03:47:58;;;;;;;0.40;0.40;;;13.00;99.90;;;;;;5014808;28;20183;-76
2022/05/25 03:50:24;;;;;;;0.30;0.30;;;13.00;99.90;;;;;;5011317;28;20176;-76
2022/05/25 03:52:49;;;;;;;0.50;0.50;;;13.00;99.90;;;;;;5011974;28;20200;-76
2022/05/25 03:55:15;;;;;;;0.40;0.40;;;13.00;99.90;;;;;;5012362;28;20219;-77
2022/05/25 03:57:41;;;;;;;0.40;0.40;;;13.00;99.90;;;;;;5012010;28;20699;-76
2022/05/25 04:00:08;;;;;;;0.40;0.40;;;13.00;36.00;;;;;;5011065;28;20508;-77
2022/05/25 04:02:33;;;;;;;0.43;0.43;;;13.00;73.90;;;;;;5012282;28;20238;-77
2022/05/25 04:05:08;;;;;;;0.50;0.50;;;12.90;99.90;;;;;;5012545;28;20208;-76
2022/05/25 04:07:39;;;;;;;0.60;0.60;;;13.00;99.90;;;;;;5011942;28;20617;-76
2022/05/25 04:10:07;;;;;;;0.50;0.50;;;12.90;99.90;;;;;;5011818;28;20638;-77
2022/05/25 04:12:33;;;;;;;0.40;0.40;;;12.90;99.90;;;;;;5011813;28;20704;-77
2022/05/25 04:14:59;;;;;;;0.40;0.40;;;12.90;99.90;;;;;;5012016;28;20444;-77
2022/05/25 04:17:25;;;;;;;0.50;0.50;;;12.90;99.90;;;;;;5010544;28;20168;-78
2022/05/25 04:19:50;;;;;;;0.40;0.40;;;12.90;99.90;;;;;;5011524;28;20172;-77
2022/05/25 04:22:17;;;;;;;0.50;0.50;;;12.90;99.90;;;;;;5011638;28;20199;-77
2022/05/25 04:24:43;;;;;;;0.50;0.50;;;12.80;99.90;;;;;;5014972;28;20181;-77
2022/05/25 04:27:09;;;;;;;0.40;0.40;;;12.80;99.90;;;;;;5015407;28;20732;-76
2022/05/25 04:29:37;;;;;;;0.40;0.40;;;12.90;99.90;;;;;;5014904;28;20541;-77
2022/05/25 04:32:04;;;;;;;0.43;0.43;;;12.90;99.90;;;;;;5015505;28;20288;-76
2022/05/25 04:34:29;;;;;;;0.40;0.40;;;12.90;99.90;;;;;;5015360;28;20651;-76
2022/05/25 04:37:48;;;;;;;0.40;0.40;;;13.00;99.90;;;;;;5015463;28;20697;-76
2022/05/25 04:39:40;;;;;;;0.40;0.40;;;13.00;99.90;;;;;;5014619;28;20275;-77
2022/05/25 04:42:06;;;;;;;0.40;0.40;;;13.00;99.90;;;;;;5017400;28;20224;-77
2022/05/25 04:44:31;;;;;;;0.50;0.50;;;13.10;99.90;;;;;;5017582;28;20293;-78
2022/05/25 04:46:57;;;;;;;0.30;0.30;;;13.00;99.90;;;;;;5016801;28;20517;-77
2022/05/25 04:49:25;;;;;;;0.30;0.30;;;13.10;99.90;;;;;;5015910;28;20241;-77
2022/05/25 04:51:51;;;;;;;0.43;0.43;;;13.10;99.90;;;;;;5015564;28;20615;-77
2022/05/25 04:54:16;;;;;;;0.30;0.30;;;13.20;99.90;;;;;;5015743;28;20236;-78
2022/05/25 04:59:26;;;;;;;0.40;0.40;;;13.30;31.10;;;;;;5014914;28;20599;-77
2022/05/25 05:01:51;;;;;;;0.37;0.37;;;13.30;99.90;;;;;;5015121;28;20669;-78
2022/05/25 05:04:17;;;;;;;0.40;0.40;;;13.30;99.90;;;;;;5015125;28;20177;-78
2022/05/25 05:06:44;;;;;;;0.30;0.30;;;13.20;99.90;;;;;;5014834;28;20176;-78
2022/05/25 05:09:10;;;;;;;0.40;0.40;;;13.20;99.90;;;;;;5014552;28;20181;-77
2022/05/25 05:11:37;;;;;;;0.30;0.30;;;13.20;99.90;;;;;;5014934;28;20189;-78
2022/05/25 05:14:03;;;;;;;0.40;0.40;;;13.20;99.90;;;;;;5015254;28;20282;-78
2022/05/25 05:16:29;;;;;;;0.40;0.40;;;13.30;99.90;;;;;;5015089;28;20239;-77
2022/05/25 05:18:55;;;;;;;0.40;0.40;;;13.40;99.90;;;;;;5014792;28;20288;-77
2022/05/25 05:21:20;;;;;;;0.40;0.40;;;13.40;99.90;;;;;;5015132;28;20665;-78
2022/05/25 05:23:46;;;;;;;0.40;0.40;;;13.40;99.90;;;;;;5015545;28;20260;-78
2022/05/25 05:26:13;;;;;;;0.43;0.43;;;13.40;99.90;;;;;;5015615;28;20219;-76
2022/05/25 05:28:41;;;;;;;0.30;0.30;;;13.40;99.90;;;;;;5014492;28;20204;-76
2022/05/25 05:31:09;;;;;;;0.40;0.40;;;13.50;99.90;;;;;;5013600;28;20222;-76
2022/05/25 05:33:34;;;;;;;0.40;0.40;;;13.50;99.90;;;;;;5013123;28;20204;-76
2022/05/25 05:36:08;;;;;;;0.40;0.40;;;13.50;99.90;;;;;;5013911;28;20182;-76
2022/05/25 05:38:37;;;;;;;0.40;0.40;;;13.60;99.90;;;;;;5016096;28;20669;-79
2022/05/25 05:41:03;;;;;;;0.40;0.40;;;13.80;69.60;;;;;;5016327;28;20566;-76
2022/05/25 05:43:29;;;;;;;0.40;0.40;;;14.00;7.20;;;;;;5016517;28;20177;-76
2022/05/25 05:45:55;;;;;;;0.40;0.40;;;14.20;1.00;;;;;;5015814;28;20196;-76
2022/05/25 05:48:25;;;;;;;0.40;0.40;;;14.50;1.00;;;;;;5013751;28;20180;-75
2022/05/25 05:50:54;;;;;;;0.40;0.40;;;14.60;99.90;;;;;;5013260;28;20213;-76
2022/05/25 05:53:21;;;;;;;0.40;0.40;;;14.70;1.00;;;;;;5013766;28;20666;-75
2022/05/25 05:55:47;;;;;;;0.40;0.40;;;14.70;1.00;;;;;;5013557;28;20184;-76
2022/05/25 05:58:13;;;;;;;0.37;0.37;;;14.80;99.90;;;;;;5013522;28;20641;-75
2022/05/25 06:00:39;;;;;;;0.50;0.50;;;14.80;99.90;;;;;;5012866;28;20199;-76
2022/05/25 06:03:05;;;;;;;0.30;0.30;;;14.90;99.90;;;;;;5013344;28;20177;-76
2022/05/25 06:05:31;;;;;;;0.40;0.40;;;15.00;99.90;;;;;;5013819;28;20258;-77
2022/05/25 06:08:07;;;;;;;0.40;0.40;;;15.00;1.00;;;;;;5013844;28;20177;-76
2022/05/25 06:10:33;;;;;;;0.30;0.30;;;15.20;99.90;;;;;;5013201;28;20185;-76
2022/05/25 06:12:59;;;;;;;0.30;0.30;;;15.40;99.90;;;;;;5013611;28;20181;-77
2022/05/25 06:20:52;;;;;;;0.30;0.30;;;15.40;99.90;;;;;;5012688;28;20239;-74
2022/05/25 06:23:18;;;;;;;0.40;0.40;;;15.60;1.00;;;;;;5013049;28;20204;-73
2022/05/25 06:25:43;;;;;;;0.30;0.30;;;15.70;99.90;;;;;;5012947;28;20177;-74
2022/05/25 06:28:09;;;;;;;0.30;0.30;;;15.80;96.80;;;;;;5012719;28;20168;-74
2022/05/25 06:30:34;;;;;;;0.30;0.30;;;16.00;99.90;;;;;;5012185;28;20542;-74
2022/05/25 06:33:00;;;;;;;0.30;0.30;;;16.20;1.00;;;;;;5012839;28;20585;-73
2022/05/25 06:35:26;;;;;;;0.30;0.30;;;16.40;1.00;;;;;;5012982;28;20183;-73
2022/05/25 06:37:51;;;;;;;0.40;0.40;;;16.50;1.00;;;;;;5012768;28;20278;-73
2022/05/25 06:40:17;;;;;;;0.40;0.40;;;16.60;1.00;;;;;;5012169;28;20703;-73
2022/05/25 06:42:42;;;;;;;0.30;0.30;;;16.60;1.00;;;;;;5012418;28;20693;-74
2022/05/25 06:45:10;;;;;;;0.33;0.33;;;16.70;1.00;;;;;;5012740;28;20318;-73
2022/05/25 06:47:36;;;;;;;0.30;0.30;;;16.70;1.00;;;;;;5011928;28;20180;-75
2022/05/25 06:50:02;;;;;;;0.30;0.30;;;16.60;1.00;;;;;;5011893;28;20723;-75
2022/05/25 06:52:28;;;;;;;0.30;0.30;;;16.70;1.00;;;;;;5012342;28;20275;-74
2022/05/25 06:54:54;;;;;;;0.40;0.40;;;16.60;1.00;;;;;;5011550;28;20216;-73
2022/05/25 06:57:19;;;;;;;0.30;0.30;;;16.90;1.00;;;;;;5011894;28;20184;-74
2022/05/25 06:59:45;;;;;;;0.30;0.30;;;17.20;1.00;;;;;;5011690;28;20172;-73
2022/05/25 07:02:11;;;;;;;0.30;0.30;;;17.50;1.00;;;;;;5011647;28;20184;-73
2022/05/25 07:04:36;;;;;;;0.40;0.40;;;17.70;1.00;;;;;;5011663;28;20177;-72
2022/05/25 07:07:03;;;;;;;0.40;0.40;;;17.60;1.00;;;;;;5011622;28;20172;-73
2022/05/25 07:09:30;;;;;;;0.30;0.30;;;17.60;1.00;;;;;;5011333;28;20179;-72
2022/05/25 07:11:57;;;;;;;0.37;0.37;;;17.70;1.00;;;;;;5011427;28;20224;-74
2022/05/25 07:14:22;;;;;;;0.40;0.40;;;17.60;1.00;;;;;;5011840;28;20212;-73
2022/05/25 07:16:48;;;;;;;0.30;0.30;;;17.70;1.00;;;;;;5011830;28;20176;-73
2022/05/25 07:19:13;;;;;;;0.30;0.30;;;18.00;1.00;;;;;;5011113;28;20626;-73
2022/05/25 07:21:39;;;;;;;0.30;0.30;;;18.10;1.00;;;;;;5011474;28;20251;-73
2022/05/25 07:24:05;;;;;;;0.40;0.40;;;18.10;1.00;;;;;;5011376;28;20180;-73
2022/05/25 07:26:34;;;;;;;0.40;0.40;;;18.00;1.00;;;;;;5011749;28;20230;-73
2022/05/25 07:29:00;;;;;;;0.30;0.30;;;17.80;1.00;;;;;;5011530;28;20199;-73
2022/05/25 07:31:31;;;;;;;0.30;0.30;;;17.80;1.00;;;;;;5011924;28;20669;-77
2022/05/25 07:34:08;;;;;;;0.40;0.40;;;18.00;1.00;;;;;;5011844;28;20242;-75
2022/05/25 07:36:36;;;;;;;0.30;0.30;;;18.30;1.00;;;;;;5011820;28;20180;-74
2022/05/25 07:39:07;;;;;;;0.30;0.30;;;18.50;1.00;;;;;;5011130;28;20176;-75
2022/05/25 07:41:36;;;;;;;0.30;0.30;;;18.50;1.00;;;;;;5011878;28;20188;-75
2022/05/25 07:44:02;;;;;;;0.30;0.30;;;18.70;1.00;;;;;;5012029;28;20188;-76
2022/05/25 07:46:29;;;;;;;0.30;0.30;;;19.10;1.00;;;;;;5011214;28;20176;-75
2022/05/25 07:48:55;;;;;;;0.30;0.30;;;19.40;1.00;;;;;;4991536;28;20264;-76
2022/05/25 07:51:21;;;;;;;0.30;0.30;;;19.90;1.00;;;;;;4991625;28;20276;-74
2022/05/25 07:53:55;;;;;;;0.30;0.30;;;20.20;1.00;;;;;;4996479;28;20214;-75
2022/05/25 07:56:21;;;;;;;0.20;0.20;;;20.50;1.00;;;;;;5009407;28;20179;-76
2022/05/25 07:58:47;;;;;;;0.40;0.40;;;20.70;1.00;;;;;;5015627;28;20180;-75
2022/05/25 08:01:16;;;;;;;0.33;0.33;;;20.70;1.00;;;;;;5017711;28;20575;-75
2022/05/25 08:06:29;;;;;;;0.43;0.43;;;20.80;1.00;;;;;;5017435;28;20276;-75
2022/05/25 08:08:56;;;;;;;0.30;0.30;;;20.50;1.00;;;;;;5017288;28;20267;-76
2022/05/25 08:11:22;;;;;;;0.30;0.30;;;20.70;1.00;;;;;;5017667;28;20196;-75
2022/05/25 08:13:51;;;;;;;0.30;0.30;;;21.20;1.00;;;;;;5017576;28;20207;-75
2022/05/25 08:16:16;;;;;;;0.30;0.30;;;21.70;1.00;;;;;;5018689;28;20181;-75
2022/05/25 08:18:42;;;;;;;0.33;0.33;;;22.50;1.00;;;;;;5018682;28;20272;-74
2022/05/25 08:21:08;;;;;;;0.47;0.47;;;22.70;1.00;;;;;;5017819;28;20207;-76
2022/05/25 08:23:34;;;;;;;0.30;0.30;;;22.90;1.00;;;;;;5018312;28;20251;-76
2022/05/25 08:26:00;;;;;;;0.30;0.30;;;23.40;1.00;;;;;;5019742;28;20643;-75
2022/05/25 08:28:25;;;;;;;0.30;0.30;;;23.50;1.00;;;;;;5019787;28;20181;-76
2022/05/25 08:30:51;;;;;;;0.30;0.30;;;23.50;1.00;;;;;;5019063;28;20232;-75
2022/05/25 08:33:20;;;;;;;0.50;0.50;;;23.50;1.00;;;;;;5019712;28;20267;-76
2022/05/25 08:35:46;;;;;;;0.43;0.43;;;24.00;1.00;;;;;;5019998;28;20180;-75
2022/05/25 08:38:11;;;;;;;0.43;0.43;;;24.50;1.00;;;;;;5017785;28;20187;-75
2022/05/25 08:40:37;;;;;;;0.40;0.40;;;24.50;1.00;;;;;;5017376;28;20179;-75
2022/05/25 08:43:12;;;;;;;0.50;0.50;;;24.10;1.00;;;;;;5017529;28;20185;-75
2022/05/25 08:45:42;;;;;;;0.30;0.30;;;23.40;1.00;;;;;;5017294;28;20179;-77
2022/05/25 08:48:10;;;;;;;0.30;0.30;;;24.00;1.00;;;;;;5018045;28;20210;-75
2022/05/25 08:50:37;;;;;;;0.40;0.40;;;23.50;1.00;;;;;;5017323;28;20267;-75
2022/05/25 08:53:04;;;;;;;0.40;0.40;;;22.70;1.00;;;;;;5017613;28;20187;-77
2022/05/25 08:55:57;;;;;;;0.30;0.30;;;23.10;1.00;;;;;;5017613;28;20208;-76
2022/05/25 08:58:35;;;;;;;0.40;0.40;;;22.80;1.00;;;;;;5017851;28;20200;-76
2022/05/25 09:01:05;;;;;;;0.40;0.40;;;22.60;1.00;;;;;;5017341;28;20203;-77
2022/05/25 09:03:44;;;;;;;0.30;0.30;;;22.40;1.00;;;;;;5017577;28;20267;-76
2022/05/25 09:06:20;;;;;;;0.37;0.37;;;22.00;1.00;;;;;;5017756;28;20183;-75
2022/05/25 09:09:06;;;;;;;0.40;0.40;;;21.80;1.00;;;;;;5017337;28;20195;-76
2022/05/25 09:11:41;;;;;;;0.30;0.30;;;21.50;1.00;;;;;;5013930;28;20197;-75
2022/05/25 09:14:32;;;;;;;0.30;0.30;;;21.20;1.00;;;;;;5014428;28;20298;-76
2022/05/25 09:17:04;;;;;;;0.30;0.30;;;21.70;1.00;;;;;;5014260;28;20215;-76
2022/05/25 09:19:36;;;;;;;0.37;0.37;;;22.70;1.00;;;;;;5013748;28;20622;-76
2022/05/25 09:22:12;;;;;;;0.30;0.30;;;23.70;1.00;;;;;;5014302;28;20667;-75
2022/05/25 09:24:37;;;;;;;0.40;0.40;;;24.30;1.00;;;;;;5014392;28;20191;-76
2022/05/25 09:27:06;;;;;;;0.40;0.40;;;24.70;1.00;;;;;;5014300;28;20534;-77
2022/05/25 09:29:32;;;;;;;0.40;0.40;;;25.10;1.00;;;;;;5013172;28;20657;-75
2022/05/25 09:32:35;;;;;;;0.27;0.27;;;25.50;1.00;;;;;;5013682;28;20204;-75
2022/05/25 09:35:08;;;;;;;0.30;0.30;;;25.80;1.00;;;;;;5012770;28;20216;-77
2022/05/25 09:38:13;;;;;;;0.37;0.37;;;25.80;1.00;;;;;;5014127;28;20173;-77
2022/05/25 09:40:43;;;;;;;0.30;0.30;;;25.50;1.00;;;;;;4992812;28;20725;-75
2022/05/25 09:43:13;;;;;;;0.30;0.30;;;24.80;1.00;;;;;;5012720;28;20250;-77
2022/05/25 09:45:44;;;;;;;0.33;0.33;;;24.10;1.00;;;;;;5008524;28;20231;-78
2022/05/25 09:48:16;;;;;;;0.27;0.27;;;23.80;1.00;;;;;;5013332;28;20595;-77
2022/05/25 09:50:45;;;;;;;0.40;0.40;;;23.50;1.00;;;;;;5011095;28;20180;-77
2022/05/25 09:53:17;;;;;;;0.20;0.20;;;23.00;1.00;;;;;;5013142;28;20180;-77
2022/05/25 09:56:02;;;;;;;0.30;0.30;;;22.70;1.00;;;;;;5013624;28;20176;-75
2022/05/25 09:58:34;;;;;;;0.37;0.37;;;22.50;1.00;;;;;;5013584;28;20176;-76
2022/05/25 10:01:19;;;;;;;0.20;0.20;;;22.30;1.00;;;;;;5013242;28;20223;-76
2022/05/25 10:03:45;;;;;;;0.30;0.30;;;22.00;1.00;;;;;;5013329;28;20652;-75
2022/05/25 10:06:20;;;;;;;0.30;0.30;;;21.60;1.00;;;;;;5013492;28;20181;-75
2022/05/25 10:08:49;;;;;;;0.30;0.30;;;21.20;1.00;;;;;;5013125;28;20183;-76
2022/05/25 10:11:28;;;;;;;0.30;0.30;;;20.50;1.00;;;;;;5013269;28;20208;-77
2022/05/25 10:14:22;;;;;;;0.30;0.30;;;20.30;1.00;;;;;;5012672;28;20591;-74
2022/05/25 10:16:49;;;;;;;0.20;0.20;;;20.00;1.00;;;;;;5010764;28;20176;-74
2022/05/25 10:19:17;;;;;;;0.30;0.30;;;20.00;1.00;;;;;;5012578;28;20270;-74
2022/05/25 10:21:58;;;;;;;0.37;0.37;;;20.00;1.00;;;;;;5012930;28;20196;-75
2022/05/25 10:24:41;;;;;;;0.30;0.30;;;20.30;1.00;;;;;;5012664;28;20188;-75
2022/05/25 10:27:22;;;;;;;0.40;0.40;;;20.50;1.00;;;;;;5009856;28;20255;-75
2022/05/25 10:38:27;;;;;;;0.30;0.30;;;20.50;1.00;;;;;;5011779;28;20687;-75
2022/05/25 10:40:54;;;;;;;0.37;0.37;;;20.60;1.00;;;;;;5011840;28;20231;-76
2022/05/25 10:43:26;;;;;;;0.30;0.30;;;20.80;1.00;;;;;;5012640;28;20187;-75
2022/05/25 10:45:53;;;;;;;0.30;0.30;;;21.00;1.00;;;;;;5012682;28;20187;-74
2022/05/25 10:48:47;;;;;;;0.30;0.30;;;21.20;1.00;;;;;;5012834;28;20258;-75
2022/05/25 10:51:20;;;;;;;0.37;0.37;;;22.20;1.00;;;;;;5012030;28;20680;-75
2022/05/25 10:56:59;;;;;;;0.30;0.30;;;24.10;1.00;;;;;;5012907;28;20664;-76
2022/05/25 10:59:49;;;;;;;0.40;0.40;;;24.90;1.00;;;;;;5012394;28;20185;-76
2022/05/25 11:02:44;;;;;;;0.40;0.40;;;25.40;1.00;;;;;;5012597;28;20200;-76
2022/05/25 11:05:31;;;;;;;0.40;0.40;;;25.40;1.00;;;;;;5012296;28;20204;-76
2022/05/25 11:08:33;;;;;;;0.30;0.30;;;25.00;1.00;;;;;;5012575;28;20191;-77
2022/05/25 11:11:31;;;;;;;0.30;0.30;;;24.80;1.00;;;;;;5011650;28;20575;-76
2022/05/25 11:14:44;;;;;;;0.40;0.40;;;25.00;1.00;;;;;;5012285;28;20277;-76
2022/05/25 11:17:30;;;;;;;0.30;0.30;;;25.40;1.00;;;;;;5012277;28;20205;-76
2022/05/25 11:20:23;;;;;;;0.30;0.30;;;25.90;1.00;;;;;;5011516;28;20235;-76
2022/05/25 11:22:58;;;;;;;0.40;0.40;;;26.30;1.00;;;;;;5012025;28;20200;-76
2022/05/25 11:25:54;;;;;;;0.43;0.43;;;26.60;1.00;;;;;;5012389;28;20179;-76
2022/05/25 11:28:58;;;;;;;0.30;0.30;;;25.60;1.00;;;;;;5012107;28;20587;-75
2022/05/25 11:31:54;;;;;;;0.40;0.40;;;25.60;1.00;;;;;;5006204;28;20200;-75
2022/05/25 11:34:45;;;;;;;0.30;0.30;;;25.30;1.00;;;;;;5010815;28;20307;-74
2022/05/25 11:37:47;;;;;;;0.40;0.40;;;25.40;1.00;;;;;;5011105;28;20204;-75
2022/05/25 11:40:16;;;;;;;0.30;0.30;;;24.60;1.00;;;;;;5010853;28;20176;-75
2022/05/25 11:42:57;;;;;;;0.30;0.30;;;24.00;1.00;;;;;;5011728;28;20579;-75
2022/05/25 11:45:22;;;;;;;0.40;0.40;;;23.40;1.00;;;;;;5010096;28;20589;-75
2022/05/25 11:48:08;;;;;;;0.40;0.40;;;23.30;1.00;;;;;;5011620;28;20168;-76
2022/05/25 11:50:46;;;;;;;0.30;0.30;;;23.00;1.00;;;;;;5010115;28;20657;-76
2022/05/25 11:53:29;;;;;;;0.30;0.30;;;22.50;1.00;;;;;;5009049;28;20576;-75
2022/05/25 11:56:31;;;;;;;0.30;0.30;;;22.30;1.00;;;;;;5010685;28;20306;-75
2022/05/25 11:59:18;;;;;;;0.40;0.40;;;22.20;1.00;;;;;;5010156;28;20194;-76
2022/05/25 12:01:53;;;;;;;0.40;0.40;;;22.00;1.00;;;;;;5011462;28;20223;-77
2022/05/25 12:04:34;;;;;;;0.20;0.20;;;22.00;1.00;;;;;;5011129;28;20678;-76
2022/05/25 12:07:18;;;;;;;0.30;0.30;;;22.10;1.00;;;;;;5010402;28;20179;-76
2022/05/25 12:09:44;;;;;;;0.30;0.30;;;22.60;1.00;;;;;;5010253;28;20180;-76
2022/05/25 12:12:15;;;;;;;0.30;0.30;;;23.30;1.00;;;;;;5011984;28;20243;-76
2022/05/25 12:15:03;;;;;;;0.33;0.33;;;24.30;1.00;;;;;;5012290;28;20219;-76
2022/05/25 12:17:50;;;;;;;0.30;0.30;;;25.20;1.00;;;;;;5011367;28;20176;-76
2022/05/25 12:20:33;;;;;;;0.40;0.40;;;25.60;1.00;;;;;;5013766;28;20231;-75
2022/05/25 12:23:06;;;;;;;0.40;0.40;;;25.50;1.00;;;;;;5013807;28;20548;-76
2022/05/25 12:25:35;;;;;;;0.30;0.30;;;25.50;1.00;;;;;;5012818;28;20545;-76
2022/05/25 12:28:03;;;;;;;0.30;0.30;;;25.60;1.00;;;;;;5011551;28;20176;-76
2022/05/25 12:30:43;;;;;;;0.27;0.27;;;25.70;1.00;;;;;;5011123;28;20204;-76
2022/05/25 12:33:11;;;;;;;0.37;0.37;;;25.90;1.00;;;;;;5011551;28;20246;-76
2022/05/25 12:35:39;;;;;;;0.33;0.33;;;25.60;1.00;;;;;;5011405;28;20212;-77
2022/05/25 12:38:07;;;;;;;0.30;0.30;;;25.60;1.00;;;;;;5011268;28;20521;-76
2022/05/25 12:40:47;;;;;;;0.23;0.23;;;25.70;1.00;;;;;;5010738;28;20188;-76
2022/05/25 12:43:35;;;;;;;0.30;0.30;;;25.90;1.00;;;;;;5011591;28;20187;-77
2022/05/25 12:48:56;;;;;;;0.50;0.50;;;26.30;1.00;;;;;;5015037;28;20183;-75
2022/05/25 12:51:43;;;;;;;0.30;0.30;;;26.20;1.00;;;;;;5013845;28;20219;-75
2022/05/25 12:54:23;;;;;;;0.40;0.40;;;25.60;1.00;;;;;;5013750;28;20662;-75
2022/05/25 12:56:50;;;;;;;0.30;0.30;;;25.80;1.00;;;;;;5013661;28;20246;-75
2022/05/25 12:59:35;;;;;;;0.40;0.40;;;26.00;1.00;;;;;;5011000;28;20326;-75
2022/05/25 13:02:19;;;;;;;0.40;0.40;;;26.40;1.00;;;;;;5013312;28;20212;-74
2022/05/25 13:04:53;;;;;;;0.30;0.30;;;26.40;1.00;;;;;;5013795;28;20239;-75
2022/05/25 13:07:45;;;;;;;0.50;0.50;;;26.40;1.00;;;;;;5011709;28;20606;-74
2022/05/25 13:10:20;;;;;;;0.30;0.30;;;26.20;1.00;;;;;;5012265;28;20192;-75
2022/05/25 13:12:48;;;;;;;0.40;0.40;;;25.90;1.00;;;;;;5014351;28;20219;-76
2022/05/25 13:15:17;;;;;;;0.30;0.30;;;25.40;1.00;;;;;;5014604;28;20216;-76
2022/05/25 13:17:57;;;;;;;0.40;0.40;;;25.50;1.00;;;;;;5014489;28;20188;-74
2022/05/25 13:20:26;;;;;;;0.30;0.30;;;25.80;1.00;;;;;;5013779;28;20180;-74
2022/05/25 13:22:53;;;;;;;0.30;0.30;;;25.50;1.00;;;;;;5014109;28;20701;-74
2022/05/25 13:25:46;;;;;;;0.40;0.40;;;25.30;1.00;;;;;;5014472;28;20196;-75
2022/05/25 13:28:57;;;;;;;0.37;0.37;;;25.50;1.00;;;;;;5014326;28;20184;-74
2022/05/25 13:31:34;;;;;;;0.40;0.40;;;25.60;1.00;;;;;;5011745;28;20208;-74
2022/05/25 13:34:13;;;;;;;0.40;0.40;;;25.00;1.00;;;;;;5013886;28;20354;-74
2022/05/25 13:36:45;;;;;;;0.30;0.30;;;24.80;1.00;;;;;;5014012;28;20680;-74
2022/05/25 13:39:17;;;;;;;0.40;0.40;;;24.50;1.00;;;;;;5013552;28;20180;-73
2022/05/25 13:42:08;;;;;;;0.40;0.40;;;23.80;1.00;;;;;;5013824;28;20745;-75
2022/05/25 13:44:48;;;;;;;0.30;0.30;;;22.90;1.00;;;;;;5014018;28;20173;-74
2022/05/25 13:47:26;;;;;;;0.30;0.30;;;22.40;1.00;;;;;;5013785;28;20186;-74
2022/05/25 13:49:58;;;;;;;0.30;0.30;;;21.90;1.00;;;;;;5013220;28;20208;-74